FAHS

Hoedspruit Air Force Base Airport

Airport
ICAO code
FAHS
IATA Code
HDS
Summary
ICAO Region
AFI
ICAO Territory
Location

, Limpopo

Serving
Hoedspruit
Elevation
1743 ft
Coordinates
24° 22' 7" S , 31° 2' 55" E
Metar
FAHS 041000Z AUTO 33006KT //// // ////// 33/20 Q1014

Runways

Designator Length Width Surface Rops
9/27 2115 27 ASP No/No
18/36 3991 46 ASP No/No

Airport map

Aerial View

SKYbrary Partners:

Safety knowledge contributed by: